South Gardiner, Maine
Current Conditions -  °F | °C
As of 7:37 AM on Tuesday 27 Jan 2015 (Local Time) from KAUG Reporting Station
Heavy Snow Heavy Snow  
Wind Chill: -16°   Ceiling: 400
Heat Index:   Visibility: 0.25mi
Dew Point:   Wind: 25mph
Humidity: 83%   Direction: 10°N
Pressure: 29.79"   Gusts: 39mph
Location:  44.18°N, 69.76°W
Report Text: KAUG 271237Z AUTO 01022G34KT 1/4SM +SN FZFG VV004 M14/M17 A2979 RMK AO2 PK WND 02034/1233 P0000 T11441167
Loading
Personal Weather Stations






























Interactive Weather Map New forecast layout! Learn more

10-Day Weather Forecast

Advertisements
Track Severe Weather on mobile